sensor_id;sensor_type;location;lat;lon;timestamp;pressure;altitude;pressure_sealevel;temperature;humidity
54270;BME280;40181;51.560;13.000;2023-05-29T00:00:15;101006.84;;;15.61;51.51
54270;BME280;40181;51.560;13.000;2023-05-29T00:02:49;100997.13;;;15.85;51.36
54270;BME280;40181;51.560;13.000;2023-05-29T00:05:18;101008.63;;;15.85;51.28
54270;BME280;40181;51.560;13.000;2023-05-29T00:07:47;101014.81;;;15.45;52.15
54270;BME280;40181;51.560;13.000;2023-05-29T00:10:16;101007.75;;;15.57;51.96
54270;BME280;40181;51.560;13.000;2023-05-29T00:12:45;101001.56;;;15.69;52.29
54270;BME280;40181;51.560;13.000;2023-05-29T00:15:14;101001.59;;;15.50;52.63
54270;BME280;40181;51.560;13.000;2023-05-29T00:17:43;101013.03;;;15.29;53.23
54270;BME280;40181;51.560;13.000;2023-05-29T00:20:15;101012.75;;;14.49;55.22
54270;BME280;40181;51.560;13.000;2023-05-29T00:22:44;101021.66;;;14.67;54.96
54270;BME280;40181;51.560;13.000;2023-05-29T00:25:15;101007.63;;;14.73;55.43
54270;BME280;40181;51.560;13.000;2023-05-29T00:27:44;101000.59;;;14.84;54.44
54270;BME280;40181;51.560;13.000;2023-05-29T00:30:13;101013.84;;;14.97;53.47
54270;BME280;40181;51.560;13.000;2023-05-29T00:32:42;101008.56;;;14.90;53.68
54270;BME280;40181;51.560;13.000;2023-05-29T00:35:14;101018.00;;;14.34;56.10
54270;BME280;40181;51.560;13.000;2023-05-29T00:37:45;101016.19;;;14.27;56.37
54270;BME280;40181;51.560;13.000;2023-05-29T00:40:14;101012.63;;;14.21;56.73
54270;BME280;40181;51.560;13.000;2023-05-29T00:42:43;101011.75;;;14.21;56.68
54270;BME280;40181;51.560;13.000;2023-05-29T00:45:12;101005.72;;;14.47;55.52
54270;BME280;40181;51.560;13.000;2023-05-29T00:47:42;101016.59;;;13.55;58.53
54270;BME280;40181;51.560;13.000;2023-05-29T00:50:11;101014.03;;;13.68;58.13
54270;BME280;40181;51.560;13.000;2023-05-29T00:52:45;101010.63;;;13.83;57.72
54270;BME280;40181;51.560;13.000;2023-05-29T00:55:16;101005.38;;;13.91;56.76
54270;BME280;40181;51.560;13.000;2023-05-29T00:57:45;101009.81;;;13.90;57.07
54270;BME280;40181;51.560;13.000;2023-05-29T01:00:15;101008.19;;;14.09;56.18
54270;BME280;40181;51.560;13.000;2023-05-29T01:02:46;101008.16;;;14.05;56.51
54270;BME280;40181;51.560;13.000;2023-05-29T01:05:18;101018.38;;;13.60;58.23
54270;BME280;40181;51.560;13.000;2023-05-29T01:07:49;101009.84;;;13.95;57.44
54270;BME280;40181;51.560;13.000;2023-05-29T01:10:18;101012.53;;;14.01;56.41
54270;BME280;40181;51.560;13.000;2023-05-29T01:12:49;101016.06;;;14.00;56.75
54270;BME280;40181;51.560;13.000;2023-05-29T01:15:31;101016.84;;;13.91;57.37
54270;BME280;40181;51.560;13.000;2023-05-29T01:18:21;101016.97;;;14.10;56.38
54270;BME280;40181;51.560;13.000;2023-05-29T01:21:00;101023.13;;;14.06;56.38
54270;BME280;40181;51.560;13.000;2023-05-29T01:23:56;101026.69;;;14.13;56.84
54270;BME280;40181;51.560;13.000;2023-05-29T01:26:46;101018.69;;;14.00;56.23
54270;BME280;40181;51.560;13.000;2023-05-29T01:29:23;101023.97;;;14.00;56.24
54270;BME280;40181;51.560;13.000;2023-05-29T01:31:52;101027.50;;;14.05;56.03
54270;BME280;40181;51.560;13.000;2023-05-29T01:34:22;101032.84;;;14.11;55.82
54270;BME280;40181;51.560;13.000;2023-05-29T01:36:51;101021.38;;;14.11;55.52
54270;BME280;40181;51.560;13.000;2023-05-29T01:39:20;101014.34;;;14.10;56.09
54270;BME280;40181;51.560;13.000;2023-05-29T01:41:53;101024.88;;;14.05;56.35
54270;BME280;40181;51.560;13.000;2023-05-29T01:44:24;101034.47;;;13.92;57.02
54270;BME280;40181;51.560;13.000;2023-05-29T01:46:53;101026.53;;;13.89;56.66
54270;BME280;40181;51.560;13.000;2023-05-29T01:49:23;101029.13;;;13.86;57.17
54270;BME280;40181;51.560;13.000;2023-05-29T01:51:53;101030.97;;;13.95;57.33
54270;BME280;40181;51.560;13.000;2023-05-29T01:54:22;101031.88;;;13.99;56.46
54270;BME280;40181;51.560;13.000;2023-05-29T01:56:53;101034.31;;;13.71;57.28
54270;BME280;40181;51.560;13.000;2023-05-29T01:59:22;101031.75;;;13.80;56.68
54270;BME280;40181;51.560;13.000;2023-05-29T02:01:52;101035.38;;;13.99;56.13
54270;BME280;40181;51.560;13.000;2023-05-29T02:04:21;101041.31;;;13.67;57.78
54270;BME280;40181;51.560;13.000;2023-05-29T02:06:50;101036.19;;;13.89;56.45
54270;BME280;40181;51.560;13.000;2023-05-29T02:09:21;101037.09;;;13.92;56.30
54270;BME280;40181;51.560;13.000;2023-05-29T02:11:53;101050.28;;;13.88;56.50
54270;BME280;40181;51.560;13.000;2023-05-29T02:14:22;101030.84;;;13.78;56.52
54270;BME280;40181;51.560;13.000;2023-05-29T02:16:52;101033.47;;;13.76;56.46
54270;BME280;40181;51.560;13.000;2023-05-29T02:19:22;101040.69;;;13.97;55.81
54270;BME280;40181;51.560;13.000;2023-05-29T02:21:52;101030.09;;;13.99;55.93
54270;BME280;40181;51.560;13.000;2023-05-29T02:24:21;101030.91;;;13.89;56.22
54270;BME280;40181;51.560;13.000;2023-05-29T02:26:53;101031.81;;;13.89;56.24
54270;BME280;40181;51.560;13.000;2023-05-29T02:29:22;101021.31;;;14.02;56.15
54270;BME280;40181;51.560;13.000;2023-05-29T02:31:51;101027.41;;;13.90;56.82
54270;BME280;40181;51.560;13.000;2023-05-29T02:34:20;101037.91;;;13.80;56.57
54270;BME280;40181;51.560;13.000;2023-05-29T02:36:50;101039.50;;;13.60;57.86
54270;BME280;40181;51.560;13.000;2023-05-29T02:39:20;101048.16;;;13.45;58.61
54270;BME280;40181;51.560;13.000;2023-05-29T02:41:49;101032.50;;;13.65;58.32
54270;BME280;40181;51.560;13.000;2023-05-29T02:44:20;101051.00;;;13.65;58.47
54270;BME280;40181;51.560;13.000;2023-05-29T02:46:50;101052.53;;;13.42;59.25
54270;BME280;40181;51.560;13.000;2023-05-29T02:49:19;101055.28;;;13.55;58.89
54270;BME280;40181;51.560;13.000;2023-05-29T02:51:48;101061.38;;;13.45;58.97
54270;BME280;40181;51.560;13.000;2023-05-29T02:54:21;101065.09;;;12.85;60.25
54270;BME280;40181;51.560;13.000;2023-05-29T02:56:53;101059.06;;;12.95;60.81
54270;BME280;40181;51.560;13.000;2023-05-29T02:59:22;101066.63;;;12.67;61.56
54270;BME280;40181;51.560;13.000;2023-05-29T03:01:51;101078.63;;;12.47;62.86
54270;BME280;40181;51.560;13.000;2023-05-29T03:04:20;101075.44;;;12.69;61.93
54270;BME280;40181;51.560;13.000;2023-05-29T03:06:49;101072.25;;;12.97;61.51
54270;BME280;40181;51.560;13.000;2023-05-29T03:09:19;101071.19;;;12.79;62.27
54270;BME280;40181;51.560;13.000;2023-05-29T03:11:48;101070.22;;;12.74;62.71
54270;BME280;40181;51.560;13.000;2023-05-29T03:14:20;101077.97;;;12.63;63.10
54270;BME280;40181;51.560;13.000;2023-05-29T03:16:54;101074.53;;;12.67;62.92
54270;BME280;40181;51.560;13.000;2023-05-29T03:19:24;101082.09;;;12.42;64.41
54270;BME280;40181;51.560;13.000;2023-05-29T03:21:55;101080.56;;;12.57;64.52
54270;BME280;40181;51.560;13.000;2023-05-29T03:24:24;101064.81;;;12.62;64.44
54270;BME280;40181;51.560;13.000;2023-05-29T03:26:53;101081.34;;;12.53;65.09
54270;BME280;40181;51.560;13.000;2023-05-29T03:29:25;101073.88;;;12.19;66.77
54270;BME280;40181;51.560;13.000;2023-05-29T03:31:54;101080.66;;;12.04;67.51
54270;BME280;40181;51.560;13.000;2023-05-29T03:34:23;101074.81;;;12.23;67.35
54270;BME280;40181;51.560;13.000;2023-05-29T03:36:53;101074.16;;;12.41;66.88
54270;BME280;40181;51.560;13.000;2023-05-29T03:39:22;101065.44;;;12.45;67.18
54270;BME280;40181;51.560;13.000;2023-05-29T03:41:51;101074.94;;;12.32;67.14
54270;BME280;40181;51.560;13.000;2023-05-29T03:44:20;101079.16;;;12.22;67.70
54270;BME280;40181;51.560;13.000;2023-05-29T03:46:51;101081.38;;;11.97;68.94
54270;BME280;40181;51.560;13.000;2023-05-29T03:49:20;101077.44;;;12.23;68.70
54270;BME280;40181;51.560;13.000;2023-05-29T03:51:50;101085.41;;;12.29;68.65
54270;BME280;40181;51.560;13.000;2023-05-29T03:54:19;101088.06;;;12.30;69.05
54270;BME280;40181;51.560;13.000;2023-05-29T03:56:48;101089.69;;;12.22;69.59
54270;BME280;40181;51.560;13.000;2023-05-29T03:59:17;101079.53;;;12.47;68.63
54270;BME280;40181;51.560;13.000;2023-05-29T04:01:46;101083.84;;;12.40;69.40
54270;BME280;40181;51.560;13.000;2023-05-29T04:04:18;101092.41;;;12.27;70.51
54270;BME280;40181;51.560;13.000;2023-05-29T04:06:47;101098.75;;;12.38;70.18
54270;BME280;40181;51.560;13.000;2023-05-29T04:09:16;101107.34;;;12.26;70.98
54270;BME280;40181;51.560;13.000;2023-05-29T04:11:45;101109.00;;;12.21;71.57
54270;BME280;40181;51.560;13.000;2023-05-29T04:14:14;101097.56;;;12.19;72.26
54270;BME280;40181;51.560;13.000;2023-05-29T04:16:43;101109.16;;;12.30;71.59
54270;BME280;40181;51.560;13.000;2023-05-29T04:19:12;101103.91;;;12.32;72.20
54270;BME280;40181;51.560;13.000;2023-05-29T04:21:44;101113.66;;;12.38;71.68
54270;BME280;40181;51.560;13.000;2023-05-29T04:24:14;101102.25;;;12.39;71.86
54270;BME280;40181;51.560;13.000;2023-05-29T04:26:44;101115.25;;;12.26;72.51
54270;BME280;40181;51.560;13.000;2023-05-29T04:29:13;101121.81;;;12.01;73.36
54270;BME280;40181;51.560;13.000;2023-05-29T04:31:42;101110.97;;;12.35;72.61
54270;BME280;40181;51.560;13.000;2023-05-29T04:34:12;101114.44;;;12.32;72.94
54270;BME280;40181;51.560;13.000;2023-05-29T04:36:45;101111.75;;;12.27;73.43
54270;BME280;40181;51.560;13.000;2023-05-29T04:39:14;101109.53;;;12.58;72.65
54270;BME280;40181;51.560;13.000;2023-05-29T04:41:43;101118.13;;;12.43;73.49
54270;BME280;40181;51.560;13.000;2023-05-29T04:44:12;101127.88;;;12.49;73.64
54270;BME280;40181;51.560;13.000;2023-05-29T04:46:41;101131.75;;;12.76;72.91
54270;BME280;40181;51.560;13.000;2023-05-29T04:49:10;101124.56;;;12.64;73.38
54270;BME280;40181;51.560;13.000;2023-05-29T04:51:39;101124.03;;;12.89;73.10
54270;BME280;40181;51.560;13.000;2023-05-29T04:54:12;101132.53;;;12.69;73.99
54270;BME280;40181;51.560;13.000;2023-05-29T04:56:41;101127.22;;;12.66;74.06
54270;BME280;40181;51.560;13.000;2023-05-29T04:59:11;101128.13;;;12.68;74.42
54270;BME280;40181;51.560;13.000;2023-05-29T05:01:41;101130.09;;;12.84;73.96
54270;BME280;40181;51.560;13.000;2023-05-29T05:04:12;101114.19;;;12.78;74.06
54270;BME280;40181;51.560;13.000;2023-05-29T05:06:41;101123.16;;;12.90;74.20
54270;BME280;40181;51.560;13.000;2023-05-29T05:09:13;101124.09;;;12.95;73.48
54270;BME280;40181;51.560;13.000;2023-05-29T05:11:42;101128.53;;;13.00;73.79
54270;BME280;40181;51.560;13.000;2023-05-29T05:14:11;101128.28;;;12.79;74.78
54270;BME280;40181;51.560;13.000;2023-05-29T05:16:40;101123.28;;;13.02;74.31
54270;BME280;40181;51.560;13.000;2023-05-29T05:19:09;101135.56;;;12.97;74.59
54270;BME280;40181;51.560;13.000;2023-05-29T05:21:38;101136.50;;;13.05;74.93
54270;BME280;40181;51.560;13.000;2023-05-29T05:24:08;101135.81;;;13.19;74.48
54270;BME280;40181;51.560;13.000;2023-05-29T05:26:39;101139.44;;;13.27;74.59
54270;BME280;40181;51.560;13.000;2023-05-29T05:29:08;101139.44;;;13.30;75.50
54270;BME280;40181;51.560;13.000;2023-05-29T05:31:38;101145.28;;;13.01;76.54
54270;BME280;40181;51.560;13.000;2023-05-29T05:34:07;101149.84;;;13.14;77.31
54270;BME280;40181;51.560;13.000;2023-05-29T05:36:36;101143.00;;;13.31;76.34
54270;BME280;40181;51.560;13.000;2023-05-29T05:39:06;101139.50;;;13.35;76.35
54270;BME280;40181;51.560;13.000;2023-05-29T05:41:35;101140.31;;;13.26;77.73
54270;BME280;40181;51.560;13.000;2023-05-29T05:44:06;101145.47;;;13.18;77.50
54270;BME280;40181;51.560;13.000;2023-05-29T05:46:35;101143.97;;;13.40;75.94
54270;BME280;40181;51.560;13.000;2023-05-29T05:49:04;101148.59;;;13.55;75.48
54270;BME280;40181;51.560;13.000;2023-05-29T05:51:33;101146.84;;;13.61;75.16
54270;BME280;40181;51.560;13.000;2023-05-29T05:54:02;101158.34;;;13.64;74.75
54270;BME280;40181;51.560;13.000;2023-05-29T05:56:32;101154.81;;;13.65;74.39
54270;BME280;40181;51.560;13.000;2023-05-29T05:59:03;101159.22;;;13.63;74.55
54270;BME280;40181;51.560;13.000;2023-05-29T06:01:32;101156.69;;;13.74;73.86
54270;BME280;40181;51.560;13.000;2023-05-29T06:04:01;101166.28;;;13.67;74.56
54270;BME280;40181;51.560;13.000;2023-05-29T06:06:30;101154.97;;;13.78;73.70
54270;BME280;40181;51.560;13.000;2023-05-29T06:08:59;101160.38;;;13.92;73.04
54270;BME280;40181;51.560;13.000;2023-05-29T06:11:29;101145.56;;;14.09;72.45
54270;BME280;40181;51.560;13.000;2023-05-29T06:13:59;101165.03;;;14.24;71.90
54270;BME280;40181;51.560;13.000;2023-05-29T06:16:31;101160.53;;;14.12;72.47
54270;BME280;40181;51.560;13.000;2023-05-29T06:19:00;101168.66;;;14.34;72.04
54270;BME280;40181;51.560;13.000;2023-05-29T06:21:30;101161.50;;;14.19;71.98
54270;BME280;40181;51.560;13.000;2023-05-29T06:24:01;101162.56;;;14.44;71.40
54270;BME280;40181;51.560;13.000;2023-05-29T06:26:30;101158.88;;;14.23;72.02
54270;BME280;40181;51.560;13.000;2023-05-29T06:28:59;101170.75;;;14.82;71.37
54270;BME280;40181;51.560;13.000;2023-05-29T06:31:31;101168.22;;;15.06;68.96
54270;BME280;40181;51.560;13.000;2023-05-29T06:34:00;101169.06;;;14.99;68.83
54270;BME280;40181;51.560;13.000;2023-05-29T06:36:31;101170.94;;;15.28;68.57
54270;BME280;40181;51.560;13.000;2023-05-29T06:39:00;101171.03;;;15.45;68.41
54270;BME280;40181;51.560;13.000;2023-05-29T06:41:29;101163.94;;;15.41;68.58
54270;BME280;40181;51.560;13.000;2023-05-29T06:43:58;101170.28;;;15.98;66.43
54270;BME280;40181;51.560;13.000;2023-05-29T06:46:30;101176.47;;;16.11;65.21
54270;BME280;40181;51.560;13.000;2023-05-29T06:48:59;101176.47;;;16.22;65.01
54270;BME280;40181;51.560;13.000;2023-05-29T06:51:28;101164.09;;;16.38;64.02
54270;BME280;40181;51.560;13.000;2023-05-29T06:53:57;101165.84;;;16.28;64.08
54270;BME280;40181;51.560;13.000;2023-05-29T06:56:26;101171.09;;;16.60;63.13
54270;BME280;40181;51.560;13.000;2023-05-29T06:58:56;101179.03;;;16.74;61.36
54270;BME280;40181;51.560;13.000;2023-05-29T07:01:25;101178.22;;;16.40;58.72
54270;BME280;40181;51.560;13.000;2023-05-29T07:03:56;101183.50;;;16.66;57.95
54270;BME280;40181;51.560;13.000;2023-05-29T07:06:25;101181.72;;;16.64;58.06
54270;BME280;40181;51.560;13.000;2023-05-29T07:08:54;101179.03;;;16.76;57.08
54270;BME280;40181;51.560;13.000;2023-05-29T07:11:23;101187.81;;;16.97;57.31
54270;BME280;40181;51.560;13.000;2023-05-29T07:13:53;101167.47;;;17.13;56.13
54270;BME280;40181;51.560;13.000;2023-05-29T07:16:22;101185.09;;;17.28;55.72
54270;BME280;40181;51.560;13.000;2023-05-29T07:18:51;101182.44;;;17.30;55.61
54270;BME280;40181;51.560;13.000;2023-05-29T07:21:23;101178.75;;;17.59;54.27
54270;BME280;40181;51.560;13.000;2023-05-29T07:23:52;101189.31;;;17.66;53.93
54270;BME280;40181;51.560;13.000;2023-05-29T07:26:21;101177.66;;;17.86;53.75
54270;BME280;40181;51.560;13.000;2023-05-29T07:28:50;101193.84;;;17.50;52.48
54270;BME280;40181;51.560;13.000;2023-05-29T07:31:19;101191.94;;;17.73;52.34
54270;BME280;40181;51.560;13.000;2023-05-29T07:33:48;101181.13;;;18.01;52.26
54270;BME280;40181;51.560;13.000;2023-05-29T07:36:17;101190.97;;;17.89;53.67
54270;BME280;40181;51.560;13.000;2023-05-29T07:38:49;101196.13;;;18.11;53.69
54270;BME280;40181;51.560;13.000;2023-05-29T07:41:18;101194.53;;;17.83;53.37
54270;BME280;40181;51.560;13.000;2023-05-29T07:43:47;101186.44;;;18.02;54.98
54270;BME280;40181;51.560;13.000;2023-05-29T07:46:17;101184.72;;;17.95;53.77
54270;BME280;40181;51.560;13.000;2023-05-29T07:48:46;101185.31;;;18.34;52.45
54270;BME280;40181;51.560;13.000;2023-05-29T07:51:15;101196.81;;;18.38;52.91
54270;BME280;40181;51.560;13.000;2023-05-29T07:53:44;101195.72;;;18.58;49.95
54270;BME280;40181;51.560;13.000;2023-05-29T07:56:16;101196.53;;;18.69;51.14
54270;BME280;40181;51.560;13.000;2023-05-29T07:58:46;101203.53;;;18.76;53.12
54270;BME280;40181;51.560;13.000;2023-05-29T08:01:17;101192.03;;;18.73;52.46
54270;BME280;40181;51.560;13.000;2023-05-29T08:03:46;101198.06;;;18.90;51.11
54270;BME280;40181;51.560;13.000;2023-05-29T08:06:15;101198.53;;;19.28;52.36
54270;BME280;40181;51.560;13.000;2023-05-29T08:08:44;101198.69;;;19.16;50.45
54270;BME280;40181;51.560;13.000;2023-05-29T08:11:16;101195.63;;;19.47;50.51
54270;BME280;40181;51.560;13.000;2023-05-29T08:13:45;101199.63;;;19.13;50.78
54270;BME280;40181;51.560;13.000;2023-05-29T08:16:14;101205.72;;;19.23;49.43
54270;BME280;40181;51.560;13.000;2023-05-29T08:18:43;101205.47;;;19.42;50.72
54270;BME280;40181;51.560;13.000;2023-05-29T08:21:13;101204.28;;;19.65;50.74
54270;BME280;40181;51.560;13.000;2023-05-29T08:23:42;101201.13;;;19.33;49.45
54270;BME280;40181;51.560;13.000;2023-05-29T08:26:11;101199.38;;;19.30;49.55
54270;BME280;40181;51.560;13.000;2023-05-29T08:28:43;101202.28;;;19.12;51.07
54270;BME280;40181;51.560;13.000;2023-05-29T08:31:12;101204.72;;;19.30;48.62
54270;BME280;40181;51.560;13.000;2023-05-29T08:33:41;101197.44;;;19.46;49.44
54270;BME280;40181;51.560;13.000;2023-05-29T08:36:10;101202.66;;;19.53;49.75
54270;BME280;40181;51.560;13.000;2023-05-29T08:38:39;101199.47;;;19.90;48.15
54270;BME280;40181;51.560;13.000;2023-05-29T08:41:12;101196.56;;;20.09;46.66
54270;BME280;40181;51.560;13.000;2023-05-29T08:43:48;101200.91;;;20.13;46.07
54270;BME280;40181;51.560;13.000;2023-05-29T08:46:18;101204.19;;;20.30;47.47
54270;BME280;40181;51.560;13.000;2023-05-29T08:48:48;101197.84;;;20.38;45.87
54270;BME280;40181;51.560;13.000;2023-05-29T08:51:19;101199.00;;;20.23;46.20
54270;BME280;40181;51.560;13.000;2023-05-29T08:53:50;101191.75;;;20.31;47.28
54270;BME280;40181;51.560;13.000;2023-05-29T08:56:19;101187.34;;;20.27;45.54
54270;BME280;40181;51.560;13.000;2023-05-29T08:58:52;101193.03;;;20.58;46.42
54270;BME280;40181;51.560;13.000;2023-05-29T09:01:23;101194.50;;;20.75;45.06
54270;BME280;40181;51.560;13.000;2023-05-29T09:03:54;101194.69;;;20.64;45.77
54270;BME280;40181;51.560;13.000;2023-05-29T09:06:23;101181.41;;;20.61;45.05
54270;BME280;40181;51.560;13.000;2023-05-29T09:08:53;101189.03;;;20.83;44.78
54270;BME280;40181;51.560;13.000;2023-05-29T09:11:22;101189.56;;;21.02;44.54
54270;BME280;40181;51.560;13.000;2023-05-29T09:13:54;101179.25;;;21.27;42.64
54270;BME280;40181;51.560;13.000;2023-05-29T09:16:25;101180.66;;;21.44;41.22
54270;BME280;40181;51.560;13.000;2023-05-29T09:19:04;101179.41;;;21.61;42.69
54270;BME280;40181;51.560;13.000;2023-05-29T09:21:34;101178.69;;;21.93;42.16
54270;BME280;40181;51.560;13.000;2023-05-29T09:24:05;101179.28;;;21.67;41.18
54270;BME280;40181;51.560;13.000;2023-05-29T09:26:34;101169.16;;;21.40;40.85
54270;BME280;40181;51.560;13.000;2023-05-29T09:29:06;101169.09;;;21.85;43.25
54270;BME280;40181;51.560;13.000;2023-05-29T09:31:39;101182.75;;;22.10;42.72
54270;BME280;40181;51.560;13.000;2023-05-29T09:34:15;101172.72;;;22.18;41.17
54270;BME280;40181;51.560;13.000;2023-05-29T09:36:46;101179.38;;;21.62;40.99
54270;BME280;40181;51.560;13.000;2023-05-29T09:39:16;101188.78;;;21.82;40.67
54270;BME280;40181;51.560;13.000;2023-05-29T09:41:46;101181.25;;;21.98;41.02
54270;BME280;40181;51.560;13.000;2023-05-29T09:44:18;101189.63;;;22.20;39.73
54270;BME280;40181;51.560;13.000;2023-05-29T09:46:48;101182.31;;;22.27;39.58
54270;BME280;40181;51.560;13.000;2023-05-29T09:49:22;101181.81;;;22.46;38.49
54270;BME280;40181;51.560;13.000;2023-05-29T09:51:53;101181.00;;;22.78;40.32
54270;BME280;40181;51.560;13.000;2023-05-29T09:54:26;101186.13;;;22.53;38.89
54270;BME280;40181;51.560;13.000;2023-05-29T09:57:00;101182.81;;;22.76;39.80
54270;BME280;40181;51.560;13.000;2023-05-29T09:59:33;101175.53;;;22.83;37.89
54270;BME280;40181;51.560;13.000;2023-05-29T10:02:04;101179.34;;;22.38;38.96
54270;BME280;40181;51.560;13.000;2023-05-29T10:04:36;101172.16;;;22.40;39.09
54270;BME280;40181;51.560;13.000;2023-05-29T10:07:18;101178.19;;;22.50;39.27
54270;BME280;40181;51.560;13.000;2023-05-29T10:09:55;101175.00;;;23.02;38.65
54270;BME280;40181;51.560;13.000;2023-05-29T10:12:29;101165.31;;;22.28;38.62
54270;BME280;40181;51.560;13.000;2023-05-29T10:15:07;101176.53;;;22.77;38.74
54270;BME280;40181;51.560;13.000;2023-05-29T10:17:46;101174.28;;;22.27;38.17
54270;BME280;40181;51.560;13.000;2023-05-29T10:20:26;101180.25;;;22.73;37.93
54270;BME280;40181;51.560;13.000;2023-05-29T10:23:00;101170.72;;;22.94;36.54
54270;BME280;40181;51.560;13.000;2023-05-29T10:25:31;101182.34;;;23.25;37.18
54270;BME280;40181;51.560;13.000;2023-05-29T10:28:02;101175.66;;;23.10;36.81
54270;BME280;40181;51.560;13.000;2023-05-29T10:30:41;101173.97;;;23.06;35.34
54270;BME280;40181;51.560;13.000;2023-05-29T10:33:24;101171.75;;;23.52;35.81
54270;BME280;40181;51.560;13.000;2023-05-29T10:36:06;101185.03;;;23.55;35.39
54270;BME280;40181;51.560;13.000;2023-05-29T10:38:41;101177.34;;;23.13;36.19
54270;BME280;40181;51.560;13.000;2023-05-29T10:41:29;101186.16;;;23.48;36.30
54270;BME280;40181;51.560;13.000;2023-05-29T10:44:39;101181.44;;;23.56;36.02
54270;BME280;40181;51.560;13.000;2023-05-29T10:47:11;101167.09;;;23.57;35.37
54270;BME280;40181;51.560;13.000;2023-05-29T10:49:49;101166.28;;;23.55;35.13
54270;BME280;40181;51.560;13.000;2023-05-29T10:52:19;101178.31;;;23.42;34.66
54270;BME280;40181;51.560;13.000;2023-05-29T10:54:53;101164.72;;;23.76;36.46
54270;BME280;40181;51.560;13.000;2023-05-29T10:57:23;101158.13;;;23.30;35.49
54270;BME280;40181;51.560;13.000;2023-05-29T11:00:02;101156.78;;;23.73;35.17
54270;BME280;40181;51.560;13.000;2023-05-29T11:02:41;101165.34;;;23.56;34.27
54270;BME280;40181;51.560;13.000;2023-05-29T11:05:18;101155.28;;;23.92;35.45
54270;BME280;40181;51.560;13.000;2023-05-29T11:07:55;101160.19;;;23.50;35.57
54270;BME280;40181;51.560;13.000;2023-05-29T11:10:44;101152.31;;;23.99;35.16
54270;BME280;40181;51.560;13.000;2023-05-29T11:13:30;101156.69;;;24.30;36.02
54270;BME280;40181;51.560;13.000;2023-05-29T11:16:05;101151.38;;;24.29;33.75
54270;BME280;40181;51.560;13.000;2023-05-29T11:18:43;101157.63;;;24.29;32.60
54270;BME280;40181;51.560;13.000;2023-05-29T11:21:33;101153.09;;;24.04;35.63
54270;BME280;40181;51.560;13.000;2023-05-29T11:24:21;101147.81;;;24.28;34.32
54270;BME280;40181;51.560;13.000;2023-05-29T11:26:52;101154.97;;;24.01;34.05
54270;BME280;40181;51.560;13.000;2023-05-29T11:29:22;101157.72;;;23.12;35.09
54270;BME280;40181;51.560;13.000;2023-05-29T11:31:55;101159.13;;;23.56;35.71
54270;BME280;40181;51.560;13.000;2023-05-29T11:34:39;101153.72;;;23.26;35.31
54270;BME280;40181;51.560;13.000;2023-05-29T11:37:11;101159.06;;;23.29;36.23
54270;BME280;40181;51.560;13.000;2023-05-29T11:39:40;101161.16;;;23.47;35.38
54270;BME280;40181;51.560;13.000;2023-05-29T11:42:10;101150.19;;;23.55;37.51
54270;BME280;40181;51.560;13.000;2023-05-29T11:44:40;101141.81;;;23.36;36.25
54270;BME280;40181;51.560;13.000;2023-05-29T11:47:09;101159.63;;;23.39;35.67
54270;BME280;40181;51.560;13.000;2023-05-29T11:49:42;101146.03;;;23.73;38.03
54270;BME280;40181;51.560;13.000;2023-05-29T11:52:13;101148.81;;;23.97;35.39
54270;BME280;40181;51.560;13.000;2023-05-29T11:54:45;101149.78;;;24.23;35.15
54270;BME280;40181;51.560;13.000;2023-05-29T11:57:17;101151.06;;;24.11;36.02
54270;BME280;40181;51.560;13.000;2023-05-29T11:59:47;101139.91;;;23.97;36.90
54270;BME280;40181;51.560;13.000;2023-05-29T12:02:17;101138.78;;;23.77;36.70
54270;BME280;40181;51.560;13.000;2023-05-29T12:05:02;101144.72;;;22.98;36.65
54270;BME280;40181;51.560;13.000;2023-05-29T12:07:33;101146.09;;;23.12;36.89
54270;BME280;40181;51.560;13.000;2023-05-29T12:10:09;101142.44;;;23.46;36.36
54270;BME280;40181;51.560;13.000;2023-05-29T12:12:38;101144.63;;;23.33;35.45
54270;BME280;40181;51.560;13.000;2023-05-29T12:15:08;101147.84;;;23.73;36.16
54270;BME280;40181;51.560;13.000;2023-05-29T12:17:40;101144.44;;;23.95;37.44
54270;BME280;40181;51.560;13.000;2023-05-29T12:20:13;101143.47;;;23.97;36.19
54270;BME280;40181;51.560;13.000;2023-05-29T12:22:44;101139.38;;;24.14;34.55
54270;BME280;40181;51.560;13.000;2023-05-29T12:25:15;101126.56;;;24.22;33.70
54270;BME280;40181;51.560;13.000;2023-05-29T12:27:48;101132.03;;;24.19;34.99
54270;BME280;40181;51.560;13.000;2023-05-29T12:30:20;101136.50;;;23.92;35.12
54270;BME280;40181;51.560;13.000;2023-05-29T12:32:51;101142.53;;;23.43;35.87
54270;BME280;40181;51.560;13.000;2023-05-29T12:35:23;101136.91;;;23.51;35.20
54270;BME280;40181;51.560;13.000;2023-05-29T12:37:55;101140.75;;;23.70;35.88
54270;BME280;40181;51.560;13.000;2023-05-29T12:40:26;101134.75;;;23.62;35.13
54270;BME280;40181;51.560;13.000;2023-05-29T12:42:58;101138.03;;;23.72;34.87
54270;BME280;40181;51.560;13.000;2023-05-29T12:45:29;101130.25;;;23.64;34.61
54270;BME280;40181;51.560;13.000;2023-05-29T12:48:00;101130.94;;;23.98;34.52
54270;BME280;40181;51.560;13.000;2023-05-29T12:50:34;101122.06;;;23.69;34.44
54270;BME280;40181;51.560;13.000;2023-05-29T12:53:05;101122.09;;;23.94;35.91
54270;BME280;40181;51.560;13.000;2023-05-29T12:55:36;101126.06;;;24.11;35.88
54270;BME280;40181;51.560;13.000;2023-05-29T12:58:08;101125.88;;;24.42;35.58
54270;BME280;40181;51.560;13.000;2023-05-29T13:00:39;101120.13;;;23.99;33.43